首页
METAR-TAF:

METAR-TAF

机场 :

Texarkana Regional Airport-Webb Field

Texarkana, 阿肯色州, 美国

纬度: 33-27-22N, 经度: 093-59-15W, 海拔: 118米

当前天气观测

该预报发布于25分钟前的04:53 UTC
风速6节,风向
温度 8°C
湿度 49%
气压 1024 hPa
能見度: 16.1公里
少量云层高于6500英尺

METAR: KTXK 230453Z AUTO 17006KT 10SM FEW065 08/M02 A3024 RMK AO2 SLP242 T00831022

时间: 23:18 (05:18 UTC)

预报

该预报发布于5小时和38分钟前的23:40 UTC
预报有效从23日的 00点(UTC)到 23日的 24点(UTC)
风速6节,风向东南
能見度: 10公里
多云层高于25000英尺
从 23日的 1100点(UTC)
风速5节,风向
能見度: 10公里
多云层高于10000英尺
从 23日的 1500点(UTC)
风速8节,风向
能見度: 10公里
阴天层高于5000英尺
从 23日的 1800点(UTC)
风速6节,风向
能見度: 10公里
阴天层高于1500英尺
附近有阵雨
从 23日的 2100点(UTC)
风速6节,风向
能見度: 3.2公里
阴天层高于400英尺
小阵雨, 轻雾

TAF: KTXK 222340Z 2300/2324 13006KT P6SM BKN250 FM231100 17005KT P6SM BKN100 FM231500 18008KT P6SM OVC050 FM231800 18006KT P6SM VCSH OVC015 FM232100 18006KT 2SM -SHRA BR OVC004

超过4000个机场的气象观测和天气预报(METAR&TAF报告)。

可查询的气象台以黄色和红色小点在地图上表示。

将鼠标移到小点上方,可查看气象台名称。

然后点击查看天气观测和预报。

如需切换地图:点击带黑十字的绿色按钮放大地图;点击带横线的绿色按钮缩小地图;或者点击绿色箭头查看邻近地区的地图。


METAR-TAF: